This is the latest recevied weather packets stored in our database for station/object OK1VCF-5. If no packets are shown the sender has not sent any weather packets the latest 10 day(s).
| Time | Temp. | Humidity | Pressure | Rain* | Wind** | Luminosity | Snow |
|---|---|---|---|---|---|---|---|
| 1777512184 | -2.22° C | 75% | 1036 hPa | - | - | - | - |
| 1777511283 | -2.22° C | 74% | 1036 hPa | - | - | - | - |
| 1777510382 | -2.22° C | 72% | 1036 hPa | - | - | - | - |
| 1777509482 | -1.67° C | 70% | 1036 hPa | - | - | - | - |
| 1777508581 | -1.67° C | 71% | 1036 hPa | - | - | - | - |
| 1777507681 | -1.11° C | 70% | 1036 hPa | - | - | - | - |
| 1777507680 | - | - | - | - | - | - | - |
| 1777506779 | -1.11° C | 70% | 1036 hPa | - | - | - | - |
| 1777505879 | -1.11° C | 68% | 1035.8 hPa | - | - | - | - |
| 1777504976 | -1.11° C | 65% | 1035.8 hPa | - | - | - | - |
| 1777504077 | -0.56° C | 66% | 1035.6 hPa | - | - | - | - |
| 1777503176 | -0.56° C | 70% | 1035.4 hPa | - | - | - | - |
| 1777502274 | 0° C | 63% | 1035.5 hPa | - | - | - | - |
| 1777501375 | 0.56° C | 60% | 1035.4 hPa | - | - | - | - |
| 1777500475 | 1.11° C | 59% | 1035.2 hPa | - | - | - | - |
| 1777499575 | 2.22° C | 54% | 1034.8 hPa | - | - | - | - |
| 1777498672 | 2.22° C | 50% | 1034.9 hPa | - | - | - | - |
| 1777497772 | 2.22° C | 50% | 1034.8 hPa | - | - | - | - |
| 1777496872 | 2.22° C | 52% | 1034.6 hPa | - | - | - | - |
| 1777495974 | 3.33° C | 46% | 1034.4 hPa | - | - | - | - |
| 1777494169 | 4.44° C | 42% | 1034 hPa | - | - | - | - |
| 1777493268 | 4.44° C | 40% | 1033.6 hPa | - | - | - | - |
| 1777492367 | 5° C | 40% | 1033.6 hPa | - | - | - | - |
| 1777491467 | 5° C | 40% | 1033.2 hPa | - | - | - | - |
| 1777490566 | 5.56° C | 38% | 1033.2 hPa | - | - | - | - |
* Rain since midnight (hover to see other rain measurements)
** Current wind speed in m/s (hover to see current wind gust speed)